Time;durP1;ratioP1;P1;durP2;ratioP2;P2;SDS_P1;SDS_P2;PMS_P1;PMS_P2;Temp;Humidity;BMP_temperature;BMP_pressure;BME280_temperature;BME280_humidity;BME280_pressure;Samples;Min_cycle;Max_cycle;Signal;HPM_P1;HPM_P2
2024/01/19 00:01:14;966996.00;3.22;1674.10;88337.00;0.29;153.44;;;;;4.30;1.00;;;;;;2272535;61;1683;-87
2024/01/19 00:03:41;689181.00;2.30;1188.48;121333.00;0.40;210.38;;;;;4.30;1.00;;;;;;2272752;61;1334;-87
2024/01/19 00:06:08;929732.00;3.10;1608.40;109618.00;0.37;190.17;;;;;4.30;1.00;;;;;;2272572;61;2002;-88
2024/01/19 00:08:34;658037.00;2.19;1134.54;102004.00;0.34;177.03;;;;;4.20;1.00;;;;;;2272663;61;1057;-88
2024/01/19 00:11:01;626475.00;2.09;1079.96;103569.00;0.35;179.73;;;;;4.00;1.00;;;;;;2276248;61;1467;-86
2024/01/19 00:13:28;765882.00;2.55;1321.68;86525.00;0.29;150.31;;;;;4.30;1.00;;;;;;2276593;61;1014;-88
2024/01/19 00:15:55;903742.00;3.01;1562.69;122375.00;0.41;212.18;;;;;4.30;1.00;;;;;;2313588;40;3653;-88
2024/01/19 00:18:26;760397.00;2.53;1312.14;98558.00;0.33;171.08;;;;;4.30;1.00;;;;;;2283231;40;3583;-89
2024/01/19 00:20:53;940087.00;3.13;1626.64;99448.00;0.33;172.62;;;;;4.30;1.00;;;;;;2272396;61;1764;-88
2024/01/19 00:23:19;1054389.00;3.51;1829.04;149519.00;0.50;258.98;;;;;4.50;1.00;;;;;;2272585;61;1045;-87
2024/01/19 00:25:47;665713.00;2.22;1147.83;80404.00;0.27;139.74;;;;;4.30;1.00;;;;;;2272472;61;2006;-87
2024/01/19 00:28:14;626413.00;2.09;1079.85;101227.00;0.34;175.69;;;;;4.20;1.00;;;;;;2272575;61;1013;-88
2024/01/19 00:30:40;802061.00;2.67;1384.72;86840.00;0.29;150.85;;;;;4.20;1.00;;;;;;2272573;61;1398;-89
2024/01/19 00:33:07;843553.00;2.81;1457.19;92590.00;0.31;160.78;;;;;4.50;1.00;;;;;;2272459;61;1011;-89
2024/01/19 00:35:36;819414.00;2.73;1415.00;114153.00;0.38;198.00;;;;;4.40;1.00;;;;;;2272356;61;1065;-86
2024/01/19 00:38:03;840314.00;2.80;1451.52;94744.00;0.32;164.50;;;;;4.30;1.00;;;;;;2272528;61;1691;-89
2024/01/19 00:40:30;732049.00;2.44;1262.86;110260.00;0.37;191.28;;;;;4.30;1.00;;;;;;2272402;61;1776;-87
2024/01/19 00:42:57;1082147.00;3.61;1878.53;109482.00;0.36;189.94;;;;;4.10;1.00;;;;;;2272501;61;1747;-88
2024/01/19 00:45:24;682184.00;2.27;1176.36;94047.00;0.31;163.30;;;;;4.00;1.00;;;;;;2272416;61;1910;-88
2024/01/19 00:47:51;1016013.00;3.39;1760.85;95683.00;0.32;166.12;;;;;4.00;1.00;;;;;;2272395;61;1064;-88
2024/01/19 00:50:18;890105.00;2.97;1538.75;124435.00;0.41;215.73;;;;;3.80;1.00;;;;;;2272518;61;1353;-87
2024/01/19 00:52:46;955153.00;3.18;1653.20;94865.00;0.32;164.71;;;;;3.80;1.00;;;;;;2272345;61;1585;-86
2024/01/19 00:55:13;1033245.00;3.44;1791.44;121973.00;0.41;211.49;;;;;3.80;1.00;;;;;;2272221;61;1568;-88
2024/01/19 01:02:38;1099762.00;3.67;1910.00;70971.00;0.24;123.44;;;;;3.90;1.00;;;;;;2273817;61;1544;-87
2024/01/19 01:12:36;860684.00;2.87;1487.17;50786.00;0.17;88.55;;;;;3.80;1.00;;;;;;2269743;61;1409;-87
2024/01/19 01:15:04;560402.00;1.87;965.89;666.00;0.00;1.77;;;;;3.80;1.00;;;;;;2268237;61;1572;-89
2024/01/19 01:20:00;119969360.00;399.90;69946344.00;0.00;0.00;0.62;;;;;4.00;1.00;;;;;;2273814;61;1401;-87
2024/01/19 01:22:27;951183.00;3.17;1646.20;29242.00;0.10;51.27;;;;;3.90;1.00;;;;;;2272159;61;1839;-88
2024/01/19 01:24:54;556313.00;1.85;958.84;0.00;0.00;0.62;;;;;4.00;1.00;;;;;;2272105;61;1036;-88
2024/01/19 01:27:21;667353.00;2.22;1150.67;0.00;0.00;0.62;;;;;3.80;1.00;;;;;;2272164;61;2002;-88
2024/01/19 01:32:17;850767.00;2.84;1469.81;64101.00;0.21;111.57;;;;;3.90;1.00;;;;;;2274951;61;1325;-87
2024/01/19 01:37:11;887459.00;2.96;1534.10;0.00;0.00;0.62;;;;;3.90;1.00;;;;;;2274875;61;1300;-91
2024/01/19 01:39:38;655372.00;2.18;1129.93;23652.00;0.08;41.59;;;;;3.90;1.00;;;;;;2272949;61;900;-88
2024/01/19 01:44:35;737026.00;2.46;1271.51;0.00;0.00;0.62;;;;;3.90;1.00;;;;;;2269905;61;1199;-89
2024/01/19 01:49:31;637453.00;2.12;1098.93;0.00;0.00;0.62;;;;;3.80;1.00;;;;;;2274403;61;1332;-89
2024/01/19 01:51:58;685370.00;2.28;1181.88;0.00;0.00;0.62;;;;;3.70;1.00;;;;;;2272778;61;1193;-90
2024/01/19 01:54:26;504307.00;1.68;869.24;0.00;0.00;0.62;;;;;3.80;1.00;;;;;;2272900;61;912;-88
2024/01/19 01:56:54;579215.00;1.93;998.34;32073.00;0.11;56.17;;;;;3.60;1.00;;;;;;2272896;61;1628;-88
2024/01/19 01:59:21;607633.00;2.03;1047.40;8283.00;0.03;14.97;;;;;3.20;1.00;;;;;;2272875;61;1671;-90
2024/01/19 02:01:48;502719.00;1.68;866.51;20169.00;0.07;35.56;;;;;2.90;1.00;;;;;;2272797;61;1217;-88
2024/01/19 02:04:16;570707.00;1.90;983.67;0.00;0.00;0.62;;;;;3.20;1.00;;;;;;2272902;61;1111;-89
2024/01/19 02:06:45;579922.00;1.93;999.56;0.00;0.00;0.62;;;;;3.10;1.00;;;;;;2272802;61;2006;-88
2024/01/19 02:11:41;664955.00;2.22;1146.52;18018.00;0.06;31.84;;;;;3.30;1.00;;;;;;2278744;61;1321;-88
2024/01/19 02:14:09;623684.00;2.08;1075.13;16453.00;0.05;29.13;;;;;3.60;1.00;;;;;;2276661;61;951;-87
2024/01/19 02:19:05;686076.00;2.29;1183.10;7832.00;0.03;14.19;;;;;3.60;1.00;;;;;;2274439;61;1360;-89
2024/01/19 02:26:31;457291.00;1.52;788.32;0.00;0.00;0.62;;;;;3.80;1.00;;;;;;2274814;61;1874;-89
2024/01/19 02:33:53;710832.00;2.37;1226.03;0.00;0.00;0.62;;;;;4.20;1.00;;;;;;2274384;61;1282;-89
2024/01/19 02:36:20;421070.00;1.40;726.03;0.00;0.00;0.62;;;;;4.20;1.00;;;;;;2272750;61;1660;-87
2024/01/19 02:38:47;442453.00;1.47;762.80;0.00;0.00;0.62;;;;;4.00;1.00;;;;;;2273266;61;1473;-89
2024/01/19 02:41:14;568171.00;1.89;979.29;57105.00;0.19;99.47;;;;;4.00;1.00;;;;;;2273464;61;1661;-89
2024/01/19 02:43:42;524970.00;1.75;904.83;0.00;0.00;0.62;;;;;4.00;1.00;;;;;;2272659;61;1588;-89
2024/01/19 02:48:37;679946.00;2.27;1172.48;33977.00;0.11;59.47;;;;;3.90;1.00;;;;;;2275057;61;1296;-87
2024/01/19 02:51:04;467864.00;1.56;806.51;0.00;0.00;0.62;;;;;4.00;1.00;;;;;;2272748;61;1566;-89
2024/01/19 02:56:00;1071689.00;3.57;1859.87;34105.00;0.11;59.69;;;;;4.20;1.00;;;;;;2275475;61;1328;-87
2024/01/19 02:58:27;359230.00;1.20;619.73;18254.00;0.06;32.25;;;;;4.30;1.00;;;;;;2273455;61;1050;-89
2024/01/19 03:00:56;267534.00;0.89;462.10;0.00;0.00;0.62;;;;;4.30;1.00;;;;;;2273427;61;1299;-89
2024/01/19 03:03:23;344403.00;1.15;594.24;11754.00;0.04;20.99;;;;;3.90;1.00;;;;;;2273425;61;1025;-88
2024/01/19 03:05:50;409291.00;1.36;705.78;7461.00;0.02;13.55;;;;;3.70;1.00;;;;;;2273352;61;1915;-87
2024/01/19 03:08:17;441861.00;1.47;761.78;0.00;0.00;0.62;;;;;3.70;1.00;;;;;;2273449;61;1225;-90
2024/01/19 03:10:43;354772.00;1.18;612.06;0.00;0.00;0.62;;;;;3.70;1.00;;;;;;2296464;55;3760;-88
2024/01/19 03:15:41;341437.00;1.14;589.14;0.00;0.00;0.62;;;;;3.90;1.00;;;;;;2274898;61;1277;-91
2024/01/19 03:18:09;319621.00;1.07;551.65;45845.00;0.15;80.00;;;;;4.00;1.00;;;;;;2273347;61;1456;-89
2024/01/19 03:20:36;440295.00;1.47;759.09;36658.00;0.12;64.11;;;;;4.00;1.00;;;;;;2273336;61;1531;-86
2024/01/19 03:23:03;347428.00;1.16;599.44;0.00;0.00;0.62;;;;;4.00;1.00;;;;;;2273354;61;1630;-91
2024/01/19 03:27:58;381293.00;1.27;657.65;0.00;0.00;0.62;;;;;4.10;1.00;;;;;;2275292;61;1301;-87
2024/01/19 03:30:25;229208.00;0.76;396.19;3325.00;0.01;6.38;;;;;4.20;1.00;;;;;;2273269;61;1657;-88
2024/01/19 03:32:52;115554.00;0.39;200.41;0.00;0.00;0.62;;;;;4.20;1.00;;;;;;2273286;61;1531;-91
2024/01/19 03:35:20;506526.00;1.69;873.06;0.00;0.00;0.62;;;;;3.90;1.00;;;;;;2273331;61;1657;-87
2024/01/19 03:37:47;252082.00;0.84;435.53;0.00;0.00;0.62;;;;;3.90;1.00;;;;;;2273271;61;992;-91
2024/01/19 03:40:13;162928.00;0.54;282.08;0.00;0.00;0.62;;;;;3.90;1.00;;;;;;2273260;61;1577;-89
2024/01/19 03:42:40;218329.00;0.73;377.47;0.00;0.00;0.62;;;;;4.00;1.00;;;;;;2273210;61;1727;-87
2024/01/19 03:45:08;170059.00;0.57;294.37;0.00;0.00;0.62;;;;;4.00;1.00;;;;;;2273189;61;1723;-88
2024/01/19 03:47:35;395087.00;1.32;681.36;925.00;0.00;2.22;;;;;4.00;1.00;;;;;;2273161;61;1932;-88
2024/01/19 03:50:02;242470.00;0.81;419.00;0.00;0.00;0.62;;;;;4.00;1.00;;;;;;2273140;61;2342;-89
2024/01/19 03:52:30;259218.00;0.86;447.80;0.00;0.00;0.62;;;;;4.00;1.00;;;;;;2273192;61;1768;-89
2024/01/19 03:54:57;322745.00;1.08;557.02;0.00;0.00;0.62;;;;;4.10;1.00;;;;;;2273229;61;915;-89
2024/01/19 03:57:24;606430.00;2.02;1045.32;0.00;0.00;0.62;;;;;4.00;1.00;;;;;;2273195;61;812;-90
2024/01/19 03:59:51;503392.00;1.68;867.66;0.00;0.00;0.62;;;;;3.90;1.00;;;;;;2273295;61;776;-89
2024/01/19 04:02:18;319387.00;1.06;551.24;0.00;0.00;0.62;;;;;3.60;1.00;;;;;;2273174;61;2299;-88
2024/01/19 04:04:44;614449.00;2.05;1059.18;0.00;0.00;0.62;;;;;3.20;1.00;;;;;;2273288;61;781;-88
2024/01/19 04:07:12;453934.00;1.51;782.55;0.00;0.00;0.62;;;;;3.40;1.00;;;;;;2273158;61;1911;-87
2024/01/19 04:09:41;372657.00;1.24;642.80;0.00;0.00;0.62;;;;;3.60;1.00;;;;;;2273189;61;1739;-88
2024/01/19 04:12:12;386618.00;1.29;666.80;0.00;0.00;0.62;;;;;3.60;1.00;;;;;;2273228;61;1288;-87
2024/01/19 04:14:41;303390.00;1.01;523.75;41376.00;0.14;72.27;;;;;3.00;1.00;;;;;;2273180;61;917;-90
2024/01/19 04:19:38;410000.00;1.37;707.00;29948.00;0.10;52.49;;;;;3.20;1.00;;;;;;2274834;61;1362;-89
2024/01/19 04:22:05;313308.00;1.04;540.80;20325.00;0.07;35.83;;;;;2.90;1.00;;;;;;2273207;61;1166;-89
2024/01/19 04:24:32;114347.00;0.38;198.33;0.00;0.00;0.62;;;;;3.10;1.00;;;;;;2273238;61;921;-89
2024/01/19 04:27:01;238284.00;0.79;411.80;0.00;0.00;0.62;;;;;3.30;1.00;;;;;;2273155;61;2002;-90
2024/01/19 04:29:28;93095.00;0.31;161.65;0.00;0.00;0.62;;;;;3.40;1.00;;;;;;2273153;61;1662;-89
2024/01/19 04:34:24;284179.00;0.95;490.72;32967.00;0.11;57.72;;;;;3.70;1.00;;;;;;2274664;61;1294;-87
2024/01/19 04:36:51;196167.00;0.65;339.33;0.00;0.00;0.62;;;;;3.70;1.00;;;;;;2273132;61;1096;-89
2024/01/19 04:39:18;153180.00;0.51;265.29;0.00;0.00;0.62;;;;;3.50;1.00;;;;;;2273076;61;1592;-87
2024/01/19 04:41:45;253972.00;0.85;438.78;18996.00;0.06;33.53;;;;;3.80;1.00;;;;;;2273093;61;1649;-88
2024/01/19 04:46:41;391665.00;1.31;675.48;0.00;0.00;0.62;;;;;3.50;1.00;;;;;;2274738;61;1950;-88
2024/01/19 04:49:08;71423.00;0.24;124.22;0.00;0.00;0.62;;;;;3.70;1.00;;;;;;2273040;61;973;-89
2024/01/19 04:51:34;122440.00;0.41;212.29;0.00;0.00;0.62;;;;;3.80;1.00;;;;;;2273051;61;1550;-89
2024/01/19 04:54:01;130290.00;0.43;225.83;0.00;0.00;0.62;;;;;3.80;1.00;;;;;;2273061;61;1713;-87
2024/01/19 04:56:28;84584.00;0.28;146.95;0.00;0.00;0.62;;;;;3.80;1.00;;;;;;2273080;61;1525;-90
2024/01/19 05:01:23;415278.00;1.38;716.07;45902.00;0.15;80.10;;;;;3.60;1.00;;;;;;2274609;61;1337;-90
2024/01/19 05:03:51;18566.00;0.06;32.79;0.00;0.00;0.62;;;;;3.80;1.00;;;;;;2273181;61;878;-90
2024/01/19 05:06:20;134687.00;0.45;233.41;0.00;0.00;0.62;;;;;3.70;1.00;;;;;;2273060;61;1915;-89
2024/01/19 05:11:14;152868.00;0.51;264.75;0.00;0.00;0.62;;;;;3.50;1.00;;;;;;2277225;61;1359;-90
2024/01/19 05:13:41;146652.00;0.49;254.04;0.00;0.00;0.62;;;;;3.60;1.00;;;;;;2276363;61;999;-88
2024/01/19 05:16:09;279817.00;0.93;483.22;2583.00;0.01;5.10;;;;;3.70;1.00;;;;;;2278159;55;3753;-88
2024/01/19 05:18:36;72946.00;0.24;126.85;0.00;0.00;0.62;;;;;3.60;1.00;;;;;;2277181;61;395;-90
2024/01/19 05:21:05;267885.00;0.89;462.71;0.00;0.00;0.62;;;;;3.60;1.00;;;;;;2276390;61;1264;-88
2024/01/19 05:23:32;225753.00;0.75;390.24;10917.00;0.04;19.54;;;;;3.70;1.00;;;;;;2356643;40;3633;-87
2024/01/19 05:25:59;149700.00;0.50;259.29;0.00;0.00;0.62;;;;;3.80;1.00;;;;;;2280497;61;1664;-87
2024/01/19 05:30:54;328376.00;1.09;566.69;0.00;0.00;0.62;;;;;3.60;1.00;;;;;;2274375;61;1367;-88
2024/01/19 05:33:21;170453.00;0.57;295.05;0.00;0.00;0.62;;;;;3.20;1.00;;;;;;2287571;56;3739;-88
2024/01/19 05:38:18;541654.00;1.81;933.57;0.00;0.00;0.62;;;;;3.50;1.00;;;;;;1554320;56;3614;-89
2024/01/19 05:45:43;407242.00;1.36;702.26;48268.00;0.16;84.19;;;;;3.30;1.00;;;;;;2354734;40;3651;-90
2024/01/19 05:48:10;153396.00;0.51;265.66;0.00;0.00;0.62;;;;;3.50;1.00;;;;;;2272913;61;1997;-90
2024/01/19 06:20:28;289230.00;0.96;499.41;0.00;0.00;0.62;;;;;3.60;1.00;;;;;;2278592;61;1337;-88
2024/01/19 06:22:55;118415048.00;394.72;67260376.00;50778.00;0.17;88.53;;;;;3.80;1.00;;;;;;2276714;61;973;-88
2024/01/19 06:57:46;608257.00;2.03;1048.48;18484.00;0.06;32.64;;;;;4.00;1.00;;;;;;2270372;61;1309;-88
2024/01/19 07:02:42;677390.00;2.26;1168.05;38507.00;0.13;67.31;;;;;4.50;1.00;;;;;;2270484;61;1348;-89
2024/01/19 07:05:09;385262.00;1.28;664.47;0.00;0.00;0.62;;;;;4.50;1.00;;;;;;2268679;61;1579;-90
2024/01/19 07:25:05;517745.00;1.73;892.38;62426.00;0.21;108.67;;;;;3.80;1.00;;;;;;2279465;61;991;-91
2024/01/19 08:32:14;1108543.00;3.70;1925.71;8803.00;0.03;15.88;;;;;3.70;1.00;;;;;;2279186;61;1242;-89
2024/01/19 08:44:38;1267669.00;4.23;2213.06;44617.00;0.15;77.88;;;;;4.20;1.00;;;;;;1577451;40;3454;-89
2024/01/19 08:52:05;639070.00;2.13;1101.73;28062.00;0.09;49.23;;;;;4.90;1.00;;;;;;2274048;61;1406;-87
2024/01/19 08:57:01;324680.00;1.08;560.34;28011.00;0.09;49.14;;;;;5.40;1.00;;;;;;2278543;61;1249;-87
2024/01/19 09:01:57;467861.00;1.56;806.51;0.00;0.00;0.62;;;;;5.20;1.00;;;;;;1575983;56;3572;-89
2024/01/19 09:04:25;98081.00;0.33;170.26;0.00;0.00;0.62;;;;;5.10;1.00;;;;;;2280286;61;2225;-89
2024/01/19 09:06:53;436401.00;1.45;752.39;0.00;0.00;0.62;;;;;5.00;1.00;;;;;;2280154;61;1994;-89
2024/01/19 09:09:21;88969.00;0.30;154.53;8405.00;0.03;15.19;;;;;5.50;1.00;;;;;;2280414;61;1761;-89
2024/01/19 09:11:48;176878.00;0.59;306.11;0.00;0.00;0.62;;;;;5.20;1.00;;;;;;2280466;61;2396;-88
2024/01/19 09:14:15;369051.00;1.23;636.61;0.00;0.00;0.62;;;;;5.60;1.00;;;;;;2280662;61;955;-90
2024/01/19 09:16:43;211367.00;0.70;365.49;0.00;0.00;0.62;;;;;5.40;1.00;;;;;;2280455;61;999;-90
2024/01/19 09:19:10;16446.00;0.05;29.12;0.00;0.00;0.62;;;;;5.20;1.00;;;;;;2280298;61;1688;-90
2024/01/19 09:21:37;149705.00;0.50;259.30;0.00;0.00;0.62;;;;;5.20;1.00;;;;;;2280444;61;1382;-89
2024/01/19 09:29:08;382343.00;1.27;659.45;58815.00;0.20;102.43;;;;;5.40;1.00;;;;;;2273978;61;1392;-89
2024/01/19 09:31:41;270420.00;0.90;467.07;0.00;0.00;0.62;;;;;5.80;1.00;;;;;;2272176;61;1774;-89
2024/01/19 09:34:08;99008.00;0.33;171.86;0.00;0.00;0.62;;;;;5.70;1.00;;;;;;2272290;61;1285;-88
2024/01/19 09:39:05;90039.00;0.30;156.38;0.00;0.00;0.62;;;;;5.30;1.00;;;;;;2274257;61;1811;-89
2024/01/19 09:41:38;417583.00;1.39;720.03;0.00;0.00;0.62;;;;;5.50;1.00;;;;;;2275504;40;3638;-90
2024/01/19 09:44:09;52857.00;0.18;92.13;0.00;0.00;0.62;;;;;5.50;1.00;;;;;;2276401;61;1034;-89
2024/01/19 09:47:01;363391.00;1.21;626.88;37485.00;0.12;65.54;;;;;5.30;1.00;;;;;;2276226;61;1566;-87
2024/01/19 09:49:39;81410.00;0.27;141.47;0.00;0.00;0.62;;;;;5.60;1.00;;;;;;2276386;61;1736;-87
2024/01/19 09:52:24;234276.00;0.78;404.90;0.00;0.00;0.62;;;;;5.50;1.00;;;;;;2276273;61;1440;-88
2024/01/19 09:54:51;128237.00;0.43;222.29;10624.00;0.04;19.03;;;;;5.70;1.00;;;;;;2276408;61;1733;-87
2024/01/19 09:57:18;246011.00;0.82;425.09;0.00;0.00;0.62;;;;;5.50;1.00;;;;;;2276391;61;1012;-88
2024/01/19 09:59:47;74028.00;0.25;128.72;0.00;0.00;0.62;;;;;5.70;1.00;;;;;;2276409;61;1717;-88
2024/01/19 10:02:14;173674.00;0.58;300.59;0.00;0.00;0.62;;;;;5.70;1.00;;;;;;2276502;61;1265;-88
2024/01/19 10:04:41;380684.00;1.27;656.60;37631.00;0.13;65.79;;;;;5.70;1.00;;;;;;2276370;61;1700;-86
2024/01/19 10:07:08;137542.00;0.46;238.33;0.00;0.00;0.62;;;;;5.70;1.00;;;;;;2276445;61;2008;-87
2024/01/19 10:09:36;140247.00;0.47;243.00;0.00;0.00;0.62;;;;;5.70;1.00;;;;;;2276260;61;1060;-89
2024/01/19 10:12:06;46025.00;0.15;80.31;0.00;0.00;0.62;;;;;5.60;1.00;;;;;;2276156;61;1311;-87
2024/01/19 10:14:33;268216.00;0.89;463.28;53449.00;0.18;93.15;;;;;5.90;1.00;;;;;;2276319;61;1735;-89
2024/01/19 10:17:04;138251.00;0.46;239.56;55622.00;0.19;96.91;;;;;5.80;1.00;;;;;;2276249;61;1718;-87
2024/01/19 10:19:32;306248.00;1.02;528.66;25442.00;0.08;44.69;;;;;5.90;1.00;;;;;;2276274;61;1309;-88
2024/01/19 10:22:26;154279.00;0.51;267.18;0.00;0.00;0.62;;;;;5.90;1.00;;;;;;2276245;61;1372;-89
2024/01/19 10:25:01;26822.00;0.09;47.08;0.00;0.00;0.62;;;;;5.90;1.00;;;;;;2276140;61;2442;-88
2024/01/19 10:27:39;163787.00;0.55;283.56;0.00;0.00;0.62;;;;;6.00;1.00;;;;;;2276286;61;1990;-89
2024/01/19 10:30:11;139028.00;0.46;240.90;39845.00;0.13;69.62;;;;;5.90;1.00;;;;;;2276274;61;1627;-89
2024/01/19 10:32:42;140164.00;0.47;242.85;10808.00;0.04;19.35;;;;;5.60;1.00;;;;;;2276392;61;1101;-89
2024/01/19 10:35:12;96260.00;0.32;167.12;0.00;0.00;0.62;;;;;5.80;1.00;;;;;;2276195;61;1053;-90
2024/01/19 10:37:39;345195.00;1.15;595.60;24186.00;0.08;42.52;;;;;5.50;1.00;;;;;;2276316;61;995;-87
2024/01/19 10:40:20;0.00;0.00;0.62;0.00;0.00;0.62;;;;;5.60;1.00;;;;;;2275963;61;1633;-88
2024/01/19 10:42:50;69799.00;0.23;121.41;0.00;0.00;0.62;;;;;5.20;1.00;;;;;;2278758;55;4161;-87
2024/01/19 10:45:29;136440.00;0.45;236.43;0.00;0.00;0.62;;;;;5.80;1.00;;;;;;2268153;61;951;-88
2024/01/19 10:48:01;142061.00;0.47;246.12;7771.00;0.03;14.09;;;;;6.20;1.00;;;;;;2268010;61;2132;-89
2024/01/19 10:50:28;221371.00;0.74;382.70;17760.00;0.06;31.39;;;;;6.20;1.00;;;;;;2268130;61;1317;-87
2024/01/19 10:52:56;193235.00;0.64;334.28;30472.00;0.10;53.40;;;;;6.10;1.00;;;;;;2268127;61;1629;-89
2024/01/19 10:55:25;111092.00;0.37;192.71;0.00;0.00;0.62;;;;;5.80;1.00;;;;;;2268083;61;961;-90
2024/01/19 10:57:54;87706.00;0.29;152.35;0.00;0.00;0.62;;;;;6.10;1.00;;;;;;2284266;40;3594;-88
2024/01/19 11:00:23;0.00;0.00;0.62;0.00;0.00;0.62;;;;;6.50;1.00;;;;;;2268788;61;1369;-88
2024/01/19 11:02:52;73669.00;0.25;128.10;0.00;0.00;0.62;;;;;6.50;1.00;;;;;;2268966;61;1001;-89
2024/01/19 11:05:20;226585.00;0.76;391.67;35416.00;0.12;61.96;;;;;6.60;1.00;;;;;;2268798;61;1031;-89
2024/01/19 11:10:15;157789.00;0.53;273.23;0.00;0.00;0.62;;;;;6.50;1.00;;;;;;2274623;61;1395;-91
2024/01/19 11:12:48;119353.00;0.40;206.97;0.00;0.00;0.62;;;;;6.70;1.00;;;;;;2272935;61;1086;-90
2024/01/19 11:15:27;18860.00;0.06;33.30;0.00;0.00;0.62;;;;;6.50;1.00;;;;;;2272654;61;1102;-89
2024/01/19 11:17:56;79315.00;0.26;137.85;0.00;0.00;0.62;;;;;6.50;1.00;;;;;;2272761;61;1595;-90
2024/01/19 11:20:24;237.00;0.00;1.03;0.00;0.00;0.62;;;;;6.50;1.00;;;;;;2272710;61;1273;-92
2024/01/19 11:22:52;184696.00;0.62;319.58;27736.00;0.09;48.66;;;;;6.30;1.00;;;;;;2272781;61;1059;-90
2024/01/19 11:25:30;91967.00;0.31;159.70;0.00;0.00;0.62;;;;;6.30;1.00;;;;;;2272874;61;1083;-88
2024/01/19 11:28:06;109784.00;0.37;190.46;0.00;0.00;0.62;;;;;6.30;1.00;;;;;;2272717;61;2013;-88
2024/01/19 11:30:45;170940.00;0.57;295.89;31923.00;0.11;55.91;;;;;6.70;1.00;;;;;;2272811;61;1402;-88
2024/01/19 11:33:19;29524.00;0.10;51.76;0.00;0.00;0.62;;;;;7.10;1.00;;;;;;2272884;61;1041;-89
2024/01/19 11:35:49;232989.00;0.78;402.69;0.00;0.00;0.62;;;;;7.00;1.00;;;;;;2272844;61;1119;-88
2024/01/19 11:38:42;42725.00;0.14;74.60;0.00;0.00;0.62;;;;;6.00;1.00;;;;;;2272793;61;2348;-89
2024/01/19 11:41:10;113912.00;0.38;197.58;0.00;0.00;0.62;;;;;6.60;1.00;;;;;;2272794;61;1250;-88
2024/01/19 11:43:39;54472.00;0.18;94.92;0.00;0.00;0.62;;;;;6.50;1.00;;;;;;2272864;61;1287;-88
2024/01/19 11:46:06;63610.00;0.21;110.72;0.00;0.00;0.62;;;;;6.00;1.00;;;;;;2272791;61;1037;-87
2024/01/19 11:52:02;90380.00;0.30;156.96;0.00;0.00;0.62;;;;;6.00;1.00;;;;;;2464499;55;1672;-86
2024/01/19 11:54:32;61199.00;0.20;106.55;0.00;0.00;0.62;;;;;5.70;1.00;;;;;;2272471;61;1698;-87
2024/01/19 11:57:17;213814.00;0.71;369.70;23637.00;0.08;41.57;;;;;5.90;1.00;;;;;;2272808;61;982;-88
2024/01/19 11:59:44;160414.00;0.53;277.75;25079.00;0.08;44.06;;;;;6.30;1.00;;;;;;2272694;61;1149;-86
2024/01/19 12:02:21;201129.00;0.67;347.87;0.00;0.00;0.62;;;;;6.40;1.00;;;;;;2272640;61;1285;-88
2024/01/19 12:04:48;435364.00;1.45;750.61;60676.00;0.20;105.65;;;;;6.60;1.00;;;;;;2272766;61;1055;-88
2024/01/19 12:07:17;274163.00;0.91;473.50;0.00;0.00;0.62;;;;;7.00;1.00;;;;;;2272662;61;1118;-88
2024/01/19 12:09:46;19263.00;0.06;33.99;0.00;0.00;0.62;;;;;7.20;1.00;;;;;;2272650;61;1960;-86
2024/01/19 12:12:13;61432.00;0.20;106.95;0.00;0.00;0.62;;;;;7.40;1.00;;;;;;2272624;61;1413;-88
2024/01/19 12:14:40;202446.00;0.67;350.13;0.00;0.00;0.62;;;;;7.50;1.00;;;;;;2272725;61;905;-87
2024/01/19 12:17:07;109743.00;0.37;190.39;0.00;0.00;0.62;;;;;7.30;1.00;;;;;;2272663;61;1092;-88
2024/01/19 12:19:34;65830.00;0.22;114.55;0.00;0.00;0.62;;;;;7.00;1.00;;;;;;2272667;61;1104;-88
2024/01/19 12:22:03;109529.00;0.37;190.02;0.00;0.00;0.62;;;;;7.20;1.00;;;;;;2272631;61;1395;-88
2024/01/19 12:24:30;11972.00;0.04;21.37;0.00;0.00;0.62;;;;;7.00;1.00;;;;;;2272712;61;1256;-89
2024/01/19 12:26:58;66796.00;0.22;116.22;0.00;0.00;0.62;;;;;6.90;1.00;;;;;;2272633;61;1098;-88
2024/01/19 12:29:30;95063.00;0.32;165.05;0.00;0.00;0.62;;;;;6.50;1.00;;;;;;2272634;61;1923;-87
2024/01/19 12:32:09;156420.00;0.52;270.87;0.00;0.00;0.62;;;;;6.00;1.00;;;;;;2269729;61;1855;-88
2024/01/19 12:34:36;132213.00;0.44;229.15;0.00;0.00;0.62;;;;;5.90;1.00;;;;;;2268623;61;1089;-88
2024/01/19 12:37:03;101913.00;0.34;176.87;0.00;0.00;0.62;;;;;6.20;1.00;;;;;;2268650;61;1017;-88
2024/01/19 12:39:30;95288.00;0.32;165.44;0.00;0.00;0.62;;;;;6.20;1.00;;;;;;2268565;61;902;-86
2024/01/19 12:42:02;120978.00;0.40;209.77;23477.00;0.08;41.29;;;;;6.50;1.00;;;;;;2268476;61;1377;-88
2024/01/19 12:44:29;143160.00;0.48;248.02;37941.00;0.13;66.33;;;;;6.50;1.00;;;;;;2268509;61;1569;-88
2024/01/19 12:46:59;5337.00;0.02;9.87;0.00;0.00;0.62;;;;;6.30;1.00;;;;;;2268409;61;1081;-88
2024/01/19 12:49:25;103452.00;0.34;179.53;0.00;0.00;0.62;;;;;6.50;1.00;;;;;;2268453;61;1919;-88
2024/01/19 12:51:52;66899.00;0.22;116.40;0.00;0.00;0.62;;;;;7.30;1.00;;;;;;2268441;61;1291;-88
2024/01/19 12:54:20;35555.00;0.12;62.20;0.00;0.00;0.62;;;;;8.10;1.00;;;;;;2268440;61;1030;-88
2024/01/19 12:59:23;148808.00;0.50;257.75;0.00;0.00;0.62;;;;;7.60;1.00;;;;;;2274460;61;1407;-87
2024/01/19 13:01:51;125186.00;0.42;217.03;0.00;0.00;0.62;;;;;7.20;1.00;;;;;;2272652;61;1607;-89
2024/01/19 13:04:18;23067.00;0.08;40.58;0.00;0.00;0.62;;;;;6.70;1.00;;;;;;2272520;61;1066;-87
2024/01/19 13:06:46;0.00;0.00;0.62;0.00;0.00;0.62;;;;;6.50;1.00;;;;;;2272522;61;889;-88
2024/01/19 13:11:41;9339.00;0.03;16.80;0.00;0.00;0.62;;;;;6.20;1.00;;;;;;2274044;61;1384;-88
2024/01/19 13:14:08;46402.00;0.15;80.96;0.00;0.00;0.62;;;;;6.40;1.00;;;;;;2272622;61;1026;-89
2024/01/19 13:16:52;86109.00;0.29;149.59;0.00;0.00;0.62;;;;;6.60;1.00;;;;;;2272540;61;1013;-89
2024/01/19 13:19:27;311856.00;1.04;538.30;24424.00;0.08;42.93;;;;;6.80;1.00;;;;;;2272398;61;1010;-90
2024/01/19 13:21:54;276210.00;0.92;477.02;0.00;0.00;0.62;;;;;7.00;1.00;;;;;;2272181;61;1536;-87
2024/01/19 13:24:23;176439.00;0.59;305.36;34265.00;0.11;59.96;;;;;6.80;1.00;;;;;;2272524;61;1139;-89
2024/01/19 13:26:59;121670.00;0.41;210.96;0.00;0.00;0.62;;;;;7.00;1.00;;;;;;2272365;61;1617;-89
2024/01/19 13:29:26;33083.00;0.11;57.92;0.00;0.00;0.62;;;;;7.20;1.00;;;;;;2272471;61;1940;-89
2024/01/19 13:31:54;116820016.00;389.40;64576516.00;0.00;0.00;0.62;;;;;6.80;1.00;;;;;;2272444;61;1758;-88
2024/01/19 13:34:26;61633.00;0.21;107.30;0.00;0.00;0.62;;;;;6.90;1.00;;;;;;2272423;61;1546;-89
2024/01/19 13:36:53;168759.00;0.56;292.13;0.00;0.00;0.62;;;;;6.80;1.00;;;;;;2272492;61;1724;-88
2024/01/19 13:39:20;56609.00;0.19;98.61;0.00;0.00;0.62;;;;;6.70;1.00;;;;;;2272478;61;1025;-86
2024/01/19 13:41:47;177838.00;0.59;307.77;29928.00;0.10;52.46;;;;;6.50;1.00;;;;;;2272437;61;1291;-88
2024/01/19 13:44:14;57674.00;0.19;100.46;0.00;0.00;0.62;;;;;6.60;1.00;;;;;;2272520;61;930;-88
2024/01/19 13:46:40;47748.00;0.16;83.29;0.00;0.00;0.62;;;;;6.50;1.00;;;;;;2272488;61;1021;-88
2024/01/19 13:49:09;219999.00;0.73;380.34;0.00;0.00;0.62;;;;;6.60;1.00;;;;;;2272477;61;2006;-88
2024/01/19 13:51:36;122805.00;0.41;212.92;0.00;0.00;0.62;;;;;6.70;1.00;;;;;;2272350;61;1673;-88
2024/01/19 13:54:02;84314.00;0.28;146.49;0.00;0.00;0.62;;;;;6.60;1.00;;;;;;2272426;61;892;-88
2024/01/19 13:56:30;203617.00;0.68;352.15;66945.00;0.22;116.48;;;;;6.70;1.00;;;;;;2272382;61;1057;-88
2024/01/19 13:58:57;80173.00;0.27;139.34;0.00;0.00;0.62;;;;;6.70;1.00;;;;;;2272353;61;2365;-90
2024/01/19 14:03:54;483036.00;1.61;832.62;29697.00;0.10;52.06;;;;;6.80;1.00;;;;;;2274057;61;1346;-89
2024/01/19 14:06:22;591.00;0.00;1.64;0.00;0.00;0.62;;;;;6.80;1.00;;;;;;2272385;61;937;-89
2024/01/19 14:08:51;88623.00;0.30;153.93;0.00;0.00;0.62;;;;;7.00;1.00;;;;;;2272177;61;1996;-87
2024/01/19 14:13:48;107056.00;0.36;185.75;0.00;0.00;0.62;;;;;6.60;1.00;;;;;;2274002;61;1297;-88
2024/01/19 14:16:15;194311.00;0.65;336.13;0.00;0.00;0.62;;;;;6.80;1.00;;;;;;2272346;61;1566;-89
2024/01/19 14:21:16;119396.00;0.40;207.04;0.00;0.00;0.62;;;;;6.90;1.00;;;;;;2274484;61;1295;-90
2024/01/19 14:26:14;125494.00;0.42;217.56;0.00;0.00;0.62;;;;;7.10;1.00;;;;;;2274751;61;1317;-90
2024/01/19 14:28:41;129013.00;0.43;223.63;0.00;0.00;0.62;;;;;7.20;1.00;;;;;;2272260;61;1910;-89